createdAt,value
2022-08-28T00:04:20.990Z,1021.232
2022-08-28T00:09:20.731Z,1021.251
2022-08-28T00:14:21.976Z,1021.267
2022-08-28T00:19:24.283Z,1021.269
2022-08-28T00:24:20.836Z,1021.279
2022-08-28T00:29:21.706Z,1021.265
2022-08-28T00:34:20.747Z,1021.243
2022-08-28T00:39:20.791Z,1021.26
2022-08-28T00:44:22.079Z,1021.268
2022-08-28T00:49:23.121Z,1021.259
2022-08-28T00:54:21.279Z,1021.228
2022-08-28T00:59:21.964Z,1021.217
2022-08-28T01:04:21.607Z,1021.192
2022-08-28T01:09:21.187Z,1021.269
2022-08-28T01:14:24.027Z,1021.261
2022-08-28T01:19:25.583Z,1021.245
2022-08-28T01:24:22.207Z,1021.231
2022-08-28T01:29:20.641Z,1021.214
2022-08-28T01:34:21.025Z,1021.173
2022-08-28T01:39:22.108Z,1021.206
2022-08-28T01:44:25.635Z,1021.213
2022-08-28T01:49:20.943Z,1021.217
2022-08-28T01:54:20.583Z,1021.24
2022-08-28T01:59:22.041Z,1021.235
2022-08-28T02:04:20.761Z,1021.215
2022-08-28T02:09:20.615Z,1021.251
2022-08-28T02:14:22.236Z,1021.217
2022-08-28T02:19:22.249Z,1021.218
2022-08-28T02:24:20.776Z,1021.248
2022-08-28T02:29:20.677Z,1021.317
2022-08-28T02:34:20.605Z,1021.35
2022-08-28T02:39:22.212Z,1021.354
2022-08-28T02:44:20.976Z,1021.385
2022-08-28T02:49:20.464Z,1021.376
2022-08-28T02:54:21.052Z,1021.329
2022-08-28T02:59:20.777Z,1021.342
2022-08-28T03:04:26.182Z,1021.4
2022-08-28T03:09:20.718Z,1021.391
2022-08-28T03:14:20.538Z,1021.385
2022-08-28T03:19:20.548Z,1021.454
2022-08-28T03:24:20.520Z,1021.452
2022-08-28T03:29:23.234Z,1021.456
2022-08-28T03:34:20.716Z,1021.496
2022-08-28T03:39:21.197Z,1021.461
2022-08-28T03:44:20.472Z,1021.483
2022-08-28T03:49:20.751Z,1021.545
2022-08-28T03:54:20.726Z,1021.504
2022-08-28T03:59:22.656Z,1021.524
2022-08-28T04:04:20.676Z,1021.551
2022-08-28T04:09:20.533Z,1021.639
2022-08-28T04:14:20.444Z,1021.686
2022-08-28T04:19:21.321Z,1021.727
2022-08-28T04:24:20.544Z,1021.76
2022-08-28T04:29:20.882Z,1021.824
2022-08-28T04:34:20.598Z,1021.879
2022-08-28T04:39:20.455Z,1021.88
2022-08-28T04:44:20.740Z,1021.877
2022-08-28T04:49:20.374Z,1021.927
2022-08-28T04:54:20.496Z,1021.968
2022-08-28T04:59:20.484Z,1021.991
2022-08-28T05:04:21.678Z,1022.043
2022-08-28T05:09:22.613Z,1022.041
2022-08-28T05:14:21.440Z,1022.089
2022-08-28T05:19:21.550Z,1022.129
2022-08-28T05:24:21.140Z,1022.131
2022-08-28T05:29:21.029Z,1022.171
2022-08-28T05:34:20.514Z,1022.169
2022-08-28T05:39:20.608Z,1022.195
2022-08-28T05:44:20.874Z,1022.169
2022-08-28T05:49:21.516Z,1022.189
2022-08-28T05:54:20.657Z,1022.147
2022-08-28T05:59:20.551Z,1022.168
2022-08-28T06:04:23.270Z,1022.173
2022-08-28T06:09:26.606Z,1022.181
2022-08-28T06:14:22.673Z,1022.168
2022-08-28T06:19:22.467Z,1022.178
2022-08-28T06:24:20.804Z,1022.193
2022-08-28T06:29:22.095Z,1022.284
2022-08-28T06:34:23.186Z,1022.36
2022-08-28T06:39:20.562Z,1022.398
2022-08-28T06:44:23.979Z,1022.366
2022-08-28T06:49:20.759Z,1022.353
2022-08-28T06:54:23.258Z,1022.293
2022-08-28T06:59:20.555Z,1022.282
2022-08-28T07:04:20.408Z,1022.35
2022-08-28T07:09:20.588Z,1022.385
2022-08-28T07:14:20.867Z,1022.427
2022-08-28T07:19:20.632Z,1022.394
2022-08-28T07:24:21.205Z,1022.466
2022-08-28T07:29:24.014Z,1022.475
2022-08-28T07:34:22.707Z,1022.557
2022-08-28T07:39:20.468Z,1022.533
2022-08-28T07:44:31.809Z,1022.588
2022-08-28T07:49:20.609Z,1022.578
2022-08-28T07:54:20.734Z,1022.541
2022-08-28T07:59:21.924Z,1022.566
2022-08-28T08:04:21.426Z,1022.628
2022-08-28T08:09:22.242Z,1022.674
2022-08-28T08:14:20.775Z,1022.745
2022-08-28T08:19:21.065Z,1022.766
2022-08-28T08:24:20.653Z,1022.809
2022-08-28T08:29:20.451Z,1022.755
2022-08-28T08:34:20.488Z,1022.786
2022-08-28T08:39:20.488Z,1022.772
2022-08-28T08:44:33.345Z,1022.733
2022-08-28T08:49:25.696Z,1022.735
2022-08-28T08:54:25.205Z,1022.771
2022-08-28T08:59:22.128Z,1022.748
2022-08-28T09:04:26.356Z,1022.729
2022-08-28T09:09:21.861Z,1022.707
2022-08-28T09:14:27.012Z,1022.731
2022-08-28T09:19:22.983Z,1022.727
2022-08-28T09:24:23.634Z,1022.762
2022-08-28T09:29:22.716Z,1022.75
2022-08-28T09:34:39.126Z,1022.655
2022-08-28T09:39:22.124Z,1022.693
2022-08-28T09:44:22.041Z,1022.779
2022-08-28T09:49:26.422Z,1022.849
2022-08-28T09:54:28.383Z,1022.778
2022-08-28T09:59:21.350Z,1022.75
2022-08-28T10:04:33.271Z,1022.779
2022-08-28T10:09:26.549Z,1022.772
2022-08-28T10:14:28.522Z,1022.787
2022-08-28T10:19:27.582Z,1022.8
2022-08-28T10:24:35.231Z,1022.643
2022-08-28T10:29:30.821Z,1022.698
2022-08-28T10:34:31.913Z,1022.667
2022-08-28T10:39:28.483Z,1022.827
2022-08-28T10:44:24.484Z,1022.747
2022-08-28T10:49:28.045Z,1022.857
2022-08-28T10:54:25.675Z,1022.838
2022-08-28T10:59:20.483Z,1022.892
2022-08-28T11:04:25.625Z,1022.866
2022-08-28T11:09:31.287Z,1022.83
2022-08-28T11:14:30.908Z,1022.808
2022-08-28T11:19:28.490Z,1022.853
2022-08-28T11:24:30.536Z,1022.856
2022-08-28T11:29:41.512Z,1022.953
2022-08-28T11:34:31.472Z,1022.985
2022-08-28T11:39:27.543Z,1022.983
2022-08-28T11:44:32.393Z,1022.979
2022-08-28T11:49:31.404Z,1022.942
2022-08-28T11:54:27.627Z,1022.915
2022-08-28T11:59:35.137Z,1022.883
2022-08-28T12:04:23.638Z,1022.957
2022-08-28T12:09:30.886Z,1023.014
2022-08-28T12:14:30.481Z,1022.908
2022-08-28T12:19:29.691Z,1022.888
2022-08-28T12:24:24.851Z,1022.938
2022-08-28T12:29:31.630Z,1022.941
2022-08-28T12:34:24.936Z,1022.99
2022-08-28T12:39:22.733Z,1022.912
2022-08-28T12:44:20.627Z,1022.874
2022-08-28T12:49:38.363Z,1022.977
2022-08-28T12:54:20.756Z,1022.866
2022-08-28T12:59:41.328Z,1022.954
2022-08-28T13:04:32.846Z,1022.983
2022-08-28T13:09:25.353Z,1023.014
2022-08-28T13:14:30.587Z,1022.966
2022-08-28T13:19:29.526Z,1022.909
2022-08-28T13:24:31.708Z,1022.942
2022-08-28T13:29:28.395Z,1022.977
2022-08-28T13:34:26.601Z,1022.905
2022-08-28T13:39:22.440Z,1022.787
2022-08-28T13:44:32.526Z,1022.834
2022-08-28T13:49:21.055Z,1022.789
2022-08-28T13:54:20.366Z,1022.838
2022-08-28T13:59:20.600Z,1022.854
2022-08-28T14:04:20.513Z,1022.791
2022-08-28T14:09:20.655Z,1022.722
2022-08-28T14:14:20.604Z,1022.783
2022-08-28T14:19:20.610Z,1022.719
2022-08-28T14:24:21.396Z,1022.756
2022-08-28T14:29:20.854Z,1022.77
2022-08-28T14:34:22.378Z,1022.734
2022-08-28T14:39:21.166Z,1022.768
2022-08-28T14:44:20.453Z,1022.642
2022-08-28T14:49:21.457Z,1022.644
2022-08-28T14:54:21.414Z,1022.656
2022-08-28T14:59:24.307Z,1022.683
2022-08-28T15:04:22.323Z,1022.681
2022-08-28T15:09:20.861Z,1022.625
2022-08-28T15:14:20.381Z,1022.688
2022-08-28T15:19:23.200Z,1022.717
2022-08-28T15:24:21.691Z,1022.695
2022-08-28T15:29:20.844Z,1022.658
2022-08-28T15:34:21.732Z,1022.719
2022-08-28T15:39:31.710Z,1022.677
2022-08-28T15:44:20.966Z,1022.632
2022-08-28T15:49:23.780Z,1022.613
2022-08-28T15:54:20.842Z,1022.588
2022-08-28T15:59:21.057Z,1022.595
2022-08-28T16:04:20.580Z,1022.578
2022-08-28T16:09:20.382Z,1022.56
2022-08-28T16:14:22.068Z,1022.547
2022-08-28T16:19:20.332Z,1022.593
2022-08-28T16:24:20.273Z,1022.536
2022-08-28T16:29:21.055Z,1022.532
2022-08-28T16:34:20.482Z,1022.604
2022-08-28T16:39:24.816Z,1022.584
2022-08-28T16:44:21.819Z,1022.593
2022-08-28T16:49:23.762Z,1022.637
2022-08-28T16:54:21.773Z,1022.589
2022-08-28T16:59:20.319Z,1022.548
2022-08-28T17:04:22.758Z,1022.529
2022-08-28T17:09:20.904Z,1022.538
2022-08-28T17:14:20.399Z,1022.575
2022-08-28T17:19:20.659Z,1022.598
2022-08-28T17:24:20.371Z,1022.554
2022-08-28T17:29:20.810Z,1022.513
2022-08-28T17:34:21.161Z,1022.523
2022-08-28T17:39:24.963Z,1022.514
2022-08-28T17:44:20.454Z,1022.546
2022-08-28T17:49:20.282Z,1022.556
2022-08-28T17:54:21.519Z,1022.57
2022-08-28T17:59:20.505Z,1022.616
2022-08-28T18:04:24.535Z,1022.579
2022-08-28T18:09:20.665Z,1022.545
2022-08-28T18:14:20.719Z,1022.547
2022-08-28T18:19:21.690Z,1022.573
2022-08-28T18:24:20.316Z,1022.532
2022-08-28T18:29:20.373Z,1022.584
2022-08-28T18:34:20.315Z,1022.646
2022-08-28T18:39:29.171Z,1022.707
2022-08-28T18:44:24.315Z,1022.75
2022-08-28T18:49:21.438Z,1022.768
2022-08-28T18:54:22.341Z,1022.735
2022-08-28T18:59:20.271Z,1022.824
2022-08-28T19:04:20.627Z,1022.85
2022-08-28T19:09:21.873Z,1022.909
2022-08-28T19:14:20.407Z,1022.917
2022-08-28T19:19:20.529Z,1023.047
2022-08-28T19:24:24.093Z,1023.099
2022-08-28T19:29:20.514Z,1023.066
2022-08-28T19:34:20.355Z,1023.135
2022-08-28T19:39:22.669Z,1023.156
2022-08-28T19:44:20.487Z,1023.227
2022-08-28T19:49:20.396Z,1023.226
2022-08-28T19:54:23.605Z,1023.268
2022-08-28T19:59:22.913Z,1023.352
2022-08-28T20:04:20.720Z,1023.362
2022-08-28T20:09:20.710Z,1023.407
2022-08-28T20:14:21.900Z,1023.527
2022-08-28T20:19:20.907Z,1023.491
2022-08-28T20:24:21.879Z,1023.525
2022-08-28T20:29:21.334Z,1023.528
2022-08-28T20:34:21.170Z,1023.533
2022-08-28T20:39:20.576Z,1023.515
2022-08-28T20:44:21.785Z,1023.415
2022-08-28T20:49:21.676Z,1023.496
2022-08-28T20:54:21.598Z,1023.572
2022-08-28T20:59:22.314Z,1023.583
2022-08-28T21:04:20.770Z,1023.67
2022-08-28T21:09:22.743Z,1023.75
2022-08-28T21:14:20.492Z,1023.716
2022-08-28T21:19:20.327Z,1023.671
2022-08-28T21:24:20.614Z,1023.619
2022-08-28T21:29:21.510Z,1023.641
2022-08-28T21:34:21.161Z,1023.624
2022-08-28T21:39:20.778Z,1023.681
2022-08-28T21:44:20.987Z,1023.725
2022-08-28T21:49:22.308Z,1023.768
2022-08-28T21:54:20.633Z,1023.784
2022-08-28T21:59:20.210Z,1023.783
2022-08-28T22:04:20.333Z,1023.729
2022-08-28T22:09:20.162Z,1023.753
2022-08-28T22:14:21.114Z,1023.729
2022-08-28T22:19:22.872Z,1023.672
2022-08-28T22:24:21.313Z,1023.714
2022-08-28T22:29:20.551Z,1023.807
2022-08-28T22:34:21.395Z,1023.815
2022-08-28T22:39:20.474Z,1023.81
2022-08-28T22:44:20.322Z,1023.774
2022-08-28T22:49:20.357Z,1023.776
2022-08-28T22:54:20.443Z,1023.742
2022-08-28T22:59:20.588Z,1023.722
2022-08-28T23:04:21.501Z,1023.698
2022-08-28T23:09:20.327Z,1023.684
2022-08-28T23:14:20.190Z,1023.74
2022-08-28T23:19:20.560Z,1023.619
2022-08-28T23:24:20.866Z,1023.544
2022-08-28T23:29:20.259Z,1023.627
2022-08-28T23:34:20.292Z,1023.539
2022-08-28T23:39:20.397Z,1023.646
2022-08-28T23:44:20.485Z,1023.599
2022-08-28T23:49:22.572Z,1023.555
2022-08-28T23:54:20.169Z,1023.459
2022-08-28T23:59:21.354Z,1023.444
